createdAt,value
2019-04-28T00:01:01.659Z,88.51
2019-04-28T00:03:47.658Z,88.37
2019-04-28T00:06:33.337Z,88.86
2019-04-28T00:09:21.332Z,89.37
2019-04-28T00:12:07.697Z,89.15
2019-04-28T00:14:53.466Z,89.04
2019-04-28T00:17:41.903Z,88.61
2019-04-28T00:20:52.897Z,88.48
2019-04-28T00:24:04.705Z,87.77
2019-04-28T00:26:53.848Z,87.52
2019-04-28T00:29:43.870Z,87.59
2019-04-28T00:32:28.302Z,87.26
2019-04-28T00:35:14.110Z,87.48
2019-04-28T00:38:01.428Z,87.63
2019-04-28T00:40:49.006Z,87.32
2019-04-28T00:43:34.437Z,87.09
2019-04-28T00:46:24.280Z,87.21
2019-04-28T00:49:11.927Z,87.06
2019-04-28T00:51:58.002Z,87.10
2019-04-28T00:54:45.046Z,86.66
2019-04-28T00:57:31.250Z,86.89
2019-04-28T01:00:19.070Z,86.89
2019-04-28T01:03:04.602Z,86.76
2019-04-28T01:05:50.866Z,86.96
2019-04-28T01:08:37.113Z,86.77
2019-04-28T01:11:23.238Z,85.99
2019-04-28T01:14:08.993Z,86.12
2019-04-28T01:17:19.805Z,86.16
2019-04-28T01:20:09.798Z,86.62
2019-04-28T01:22:55.876Z,86.66
2019-04-28T01:25:42.293Z,86.12
2019-04-28T01:28:29.751Z,85.99
2019-04-28T01:31:39.610Z,85.99
2019-04-28T01:34:25.362Z,85.94
2019-04-28T01:37:11.576Z,85.27
2019-04-28T01:39:59.567Z,85.52
2019-04-28T01:42:45.489Z,85.12
2019-04-28T01:45:30.959Z,85.09
2019-04-28T01:48:17.687Z,84.55
2019-04-28T01:51:03.210Z,84.19
2019-04-28T01:53:50.475Z,85.04
2019-04-28T01:56:37.059Z,84.88
2019-04-28T01:59:22.871Z,84.44
2019-04-28T02:02:10.237Z,84.76
2019-04-28T02:04:56.379Z,84.26
2019-04-28T02:07:41.870Z,84.25
2019-04-28T02:10:27.566Z,85.00
2019-04-28T02:13:14.040Z,84.26
2019-04-28T02:16:00.914Z,83.77
2019-04-28T02:18:46.511Z,84.02
2019-04-28T02:21:41.835Z,83.89
2019-04-28T02:24:30.528Z,83.69
2019-04-28T02:27:16.314Z,83.83
2019-04-28T02:30:02.310Z,84.02
2019-04-28T02:32:51.616Z,83.51
2019-04-28T02:35:35.851Z,83.45
2019-04-28T02:38:26.367Z,83.13
2019-04-28T02:41:12.164Z,84.13
2019-04-28T02:43:57.867Z,83.58
2019-04-28T02:46:44.207Z,82.86
2019-04-28T02:49:43.673Z,83.53
2019-04-28T02:52:47.890Z,83.61
2019-04-28T02:55:33.369Z,83.18
2019-04-28T02:58:22.111Z,83.36
2019-04-28T03:01:18.553Z,83.42
2019-04-28T03:03:54.620Z,83.32
2019-04-28T03:06:41.098Z,82.99
2019-04-28T03:09:30.403Z,83.39
2019-04-28T03:12:15.308Z,83.17
2019-04-28T03:15:01.014Z,82.32
2019-04-28T03:17:47.272Z,82.36
2019-04-28T03:20:33.763Z,82.90
2019-04-28T03:23:20.695Z,82.62
2019-04-28T03:26:23.425Z,82.65
2019-04-28T03:29:32.029Z,83.35
2019-04-28T03:32:52.867Z,83.24
2019-04-28T03:35:32.832Z,83.47
2019-04-28T03:38:21.379Z,83.09
2019-04-28T03:41:07.144Z,83.55
2019-04-28T03:43:53.103Z,83.35
2019-04-28T03:46:44.791Z,83.41
2019-04-28T03:49:32.112Z,83.20
2019-04-28T03:52:20.992Z,83.52
2019-04-28T03:55:06.197Z,83.55
2019-04-28T03:57:52.061Z,83.29
2019-04-28T04:00:40.618Z,83.62
2019-04-28T04:03:25.115Z,83.59
2019-04-28T04:06:10.803Z,83.57
2019-04-28T04:08:56.598Z,83.55
2019-04-28T04:11:50.872Z,83.55
2019-04-28T04:15:05.057Z,83.60
2019-04-28T04:18:11.088Z,83.25
2019-04-28T04:20:56.810Z,83.17
2019-04-28T04:23:42.427Z,82.41
2019-04-28T04:26:32.879Z,82.60
2019-04-28T04:29:16.915Z,83.18
2019-04-28T04:32:15.702Z,82.99
2019-04-28T04:34:50.881Z,82.43
2019-04-28T04:37:40.640Z,82.61
2019-04-28T04:40:27.149Z,82.56
2019-04-28T04:43:12.573Z,82.91
2019-04-28T04:46:22.122Z,82.93
2019-04-28T04:49:07.000Z,82.66
2019-04-28T04:51:53.106Z,83.33
2019-04-28T04:54:40.100Z,82.84
2019-04-28T04:57:26.317Z,82.97
2019-04-28T05:00:17.676Z,82.60
2019-04-28T05:03:10.613Z,82.11
2019-04-28T05:05:56.580Z,83.02
2019-04-28T05:08:42.503Z,82.37
2019-04-28T05:11:29.987Z,82.86
2019-04-28T05:14:16.053Z,82.65
2019-04-28T05:17:02.408Z,82.57
2019-04-28T05:19:49.698Z,81.96
2019-04-28T05:22:42.643Z,81.96
2019-04-28T05:25:34.260Z,82.38
2019-04-28T05:28:20.379Z,82.80
2019-04-28T05:31:06.336Z,82.31
2019-04-28T05:33:51.944Z,81.95
2019-04-28T05:36:42.474Z,80.87
2019-04-28T05:39:25.959Z,82.46
2019-04-28T05:42:11.792Z,81.81
2019-04-28T05:44:59.800Z,82.08
2019-04-28T05:47:45.579Z,80.98
2019-04-28T05:50:36.991Z,83.13
2019-04-28T05:53:30.122Z,82.34
2019-04-28T05:56:23.685Z,83.75
2019-04-28T05:59:13.553Z,82.35
2019-04-28T06:02:12.182Z,82.19
2019-04-28T06:04:59.933Z,82.49
2019-04-28T06:08:11.601Z,81.59
2019-04-28T06:10:57.224Z,81.24
2019-04-28T06:13:42.913Z,82.01
2019-04-28T06:16:30.483Z,82.12
2019-04-28T06:19:16.493Z,81.66
2019-04-28T06:22:02.048Z,81.14
2019-04-28T06:24:48.082Z,80.47
2019-04-28T06:27:33.550Z,80.81
2019-04-28T06:30:20.089Z,81.16
2019-04-28T06:33:08.116Z,80.03
2019-04-28T06:35:55.409Z,80.20
2019-04-28T06:38:40.947Z,79.47
2019-04-28T06:41:27.046Z,80.32
2019-04-28T06:44:12.924Z,79.27
2019-04-28T06:46:59.545Z,78.83
2019-04-28T06:49:45.322Z,78.52
2019-04-28T06:52:31.220Z,79.62
2019-04-28T06:55:17.314Z,77.79
2019-04-28T06:58:03.509Z,78.51
2019-04-28T07:00:49.093Z,78.12
2019-04-28T07:03:35.803Z,77.03
2019-04-28T07:06:21.652Z,77.40
2019-04-28T07:09:07.426Z,77.62
2019-04-28T07:11:53.737Z,77.47
2019-04-28T07:14:39.437Z,77.41
2019-04-28T07:17:25.185Z,76.03
2019-04-28T07:20:28.882Z,76.60
2019-04-28T07:23:14.459Z,76.16
2019-04-28T07:26:00.825Z,73.98
2019-04-28T07:28:47.056Z,73.86
2019-04-28T07:31:33.565Z,72.62
2019-04-28T07:34:20.269Z,73.21
2019-04-28T07:37:07.038Z,72.56
2019-04-28T07:39:52.875Z,73.34
2019-04-28T07:42:39.657Z,74.04
2019-04-28T07:45:25.738Z,73.95
2019-04-28T07:48:11.568Z,73.34
2019-04-28T07:50:58.077Z,71.27
2019-04-28T07:53:48.183Z,70.92
2019-04-28T07:56:33.856Z,69.75
2019-04-28T07:59:20.187Z,69.42
2019-04-28T08:02:06.023Z,68.50
2019-04-28T08:04:51.733Z,69.27
2019-04-28T08:07:37.650Z,69.82
2019-04-28T08:10:23.594Z,69.11
2019-04-28T08:13:11.890Z,70.06
2019-04-28T08:15:58.070Z,69.45
2019-04-28T08:18:43.582Z,66.25
2019-04-28T08:21:29.364Z,64.55
2019-04-28T08:24:17.213Z,61.84
2019-04-28T08:27:03.624Z,67.88
2019-04-28T08:29:58.281Z,68.42
2019-04-28T08:32:53.062Z,66.72
2019-04-28T08:35:38.922Z,65.16
2019-04-28T08:38:25.442Z,66.29
2019-04-28T08:41:10.966Z,64.85
2019-04-28T08:43:56.721Z,64.91
2019-04-28T08:46:42.493Z,64.56
2019-04-28T08:49:27.986Z,65.00
2019-04-28T08:52:13.791Z,67.21
2019-04-28T08:54:59.782Z,65.89
2019-04-28T08:57:45.534Z,64.80
2019-04-28T09:00:31.174Z,66.54
2019-04-28T09:03:16.973Z,64.74
2019-04-28T09:06:03.716Z,62.22
2019-04-28T09:08:49.156Z,62.13
2019-04-28T09:11:35.166Z,61.27
2019-04-28T09:14:21.015Z,59.86
2019-04-28T09:17:06.534Z,60.34
2019-04-28T09:19:53.566Z,65.70
2019-04-28T09:22:39.218Z,63.98
2019-04-28T09:25:25.983Z,61.82
2019-04-28T09:28:14.189Z,63.40
2019-04-28T09:31:01.650Z,61.72
2019-04-28T09:33:50.022Z,60.66
2019-04-28T09:36:38.654Z,60.36
2019-04-28T09:40:02.435Z,59.38
2019-04-28T09:43:06.586Z,58.57
2019-04-28T09:45:57.892Z,59.50
2019-04-28T09:48:44.498Z,59.28
2019-04-28T09:51:31.343Z,56.92
2019-04-28T09:54:17.451Z,57.66
2019-04-28T09:57:03.748Z,58.17
2019-04-28T09:59:49.214Z,61.04
2019-04-28T10:02:34.891Z,59.09
2019-04-28T10:05:24.736Z,57.11
2019-04-28T10:08:10.546Z,55.92
2019-04-28T10:10:56.355Z,55.84
2019-04-28T10:13:45.793Z,55.11
2019-04-28T10:16:32.563Z,57.92
2019-04-28T10:19:18.718Z,56.82
2019-04-28T10:22:08.481Z,57.78
2019-04-28T10:24:54.682Z,57.66
2019-04-28T10:27:41.221Z,58.85
2019-04-28T10:30:29.211Z,59.77
2019-04-28T10:33:14.848Z,59.97
2019-04-28T10:36:01.616Z,61.66
2019-04-28T10:38:52.355Z,60.11
2019-04-28T10:41:39.563Z,62.07
2019-04-28T10:44:26.487Z,62.62
2019-04-28T10:47:12.528Z,63.25
2019-04-28T10:49:58.138Z,58.24
2019-04-28T10:52:43.728Z,57.11
2019-04-28T10:55:32.674Z,55.07
2019-04-28T10:58:18.664Z,54.27
2019-04-28T11:01:05.315Z,52.02
2019-04-28T11:03:53.663Z,57.36
2019-04-28T11:06:39.552Z,57.54
2019-04-28T11:09:31.395Z,53.83
2019-04-28T11:12:22.411Z,48.64
2019-04-28T11:15:11.776Z,51.77
2019-04-28T11:17:57.513Z,51.57
2019-04-28T11:20:43.465Z,51.44
2019-04-28T11:23:29.387Z,52.70
2019-04-28T11:26:15.199Z,54.26
2019-04-28T11:29:01.472Z,54.42
2019-04-28T11:31:47.473Z,53.13
2019-04-28T11:34:56.039Z,53.53
2019-04-28T11:37:42.275Z,54.21
2019-04-28T11:40:28.178Z,53.25
2019-04-28T11:43:15.291Z,52.64
2019-04-28T11:46:02.008Z,49.71
2019-04-28T11:48:47.926Z,51.92
2019-04-28T11:51:34.208Z,53.16
2019-04-28T11:54:19.992Z,50.65
2019-04-28T11:57:05.878Z,47.89
2019-04-28T11:59:54.107Z,46.14
2019-04-28T12:02:39.908Z,46.13
2019-04-28T12:05:34.788Z,45.49
2019-04-28T12:08:18.340Z,43.44
2019-04-28T12:11:42.440Z,47.82
2019-04-28T12:14:36.528Z,43.56
2019-04-28T12:17:46.145Z,47.11
2019-04-28T12:20:35.132Z,46.98
2019-04-28T12:23:20.966Z,46.05
2019-04-28T12:26:06.387Z,44.77
2019-04-28T12:28:52.137Z,44.57
2019-04-28T12:31:39.504Z,46.93
2019-04-28T12:34:25.324Z,47.12
2019-04-28T12:37:10.940Z,48.57
2019-04-28T12:39:57.712Z,47.35
2019-04-28T12:42:43.216Z,46.56
2019-04-28T12:45:35.165Z,45.45
2019-04-28T12:48:17.007Z,44.42
2019-04-28T12:51:02.687Z,46.02
2019-04-28T12:53:51.935Z,46.04
2019-04-28T12:56:37.398Z,44.92
2019-04-28T12:59:28.614Z,44.51
2019-04-28T13:02:28.362Z,47.03
2019-04-28T13:05:14.940Z,44.20
2019-04-28T13:08:04.156Z,43.90
2019-04-28T13:10:50.185Z,41.25
2019-04-28T13:13:36.249Z,45.74
2019-04-28T13:16:22.252Z,45.43
2019-04-28T13:19:08.380Z,43.85
2019-04-28T13:21:54.747Z,40.69
2019-04-28T13:24:41.317Z,41.37
2019-04-28T13:27:28.792Z,40.50
2019-04-28T13:30:15.173Z,41.91
2019-04-28T13:33:02.114Z,39.82
2019-04-28T13:35:48.375Z,41.31
2019-04-28T13:38:35.746Z,42.72
2019-04-28T13:41:21.951Z,45.88
2019-04-28T13:44:10.083Z,44.51
2019-04-28T13:47:13.408Z,46.35
2019-04-28T13:50:05.623Z,45.78
2019-04-28T13:52:51.825Z,45.81
2019-04-28T13:55:59.392Z,46.40
2019-04-28T13:58:50.113Z,47.79
2019-04-28T14:01:55.717Z,48.00
2019-04-28T14:04:50.776Z,47.87
2019-04-28T14:07:41.681Z,51.16
2019-04-28T14:10:25.415Z,50.77
2019-04-28T14:13:15.082Z,51.76
2019-04-28T14:16:01.013Z,50.44
2019-04-28T14:18:50.764Z,51.33
2019-04-28T14:21:36.886Z,52.09
2019-04-28T14:24:22.731Z,52.13
2019-04-28T14:27:09.771Z,51.02
2019-04-28T14:29:55.891Z,51.43
2019-04-28T14:32:43.388Z,53.16
2019-04-28T14:35:32.750Z,51.63
2019-04-28T14:38:19.084Z,50.87
2019-04-28T14:41:05.619Z,51.27
2019-04-28T14:43:52.345Z,51.24
2019-04-28T14:46:38.359Z,51.15
2019-04-28T14:49:24.373Z,51.06
2019-04-28T14:52:09.884Z,51.26
2019-04-28T14:54:56.066Z,49.61
2019-04-28T14:57:42.489Z,49.01
2019-04-28T15:00:34.091Z,45.50
2019-04-28T15:03:20.008Z,42.66
2019-04-28T15:06:15.427Z,44.08
2019-04-28T15:09:21.030Z,45.24
2019-04-28T15:12:07.290Z,44.20
2019-04-28T15:14:53.238Z,43.16
2019-04-28T15:17:38.989Z,43.06
2019-04-28T15:20:24.474Z,44.54
2019-04-28T15:23:10.652Z,49.03
2019-04-28T15:25:58.975Z,47.27
2019-04-28T15:28:44.612Z,43.69
2019-04-28T15:31:29.966Z,43.16
2019-04-28T15:34:15.776Z,44.72
2019-04-28T15:37:10.237Z,46.25
2019-04-28T15:39:56.339Z,46.48
2019-04-28T15:42:42.735Z,48.86
2019-04-28T15:45:30.264Z,47.96
2019-04-28T15:48:16.126Z,47.88
2019-04-28T15:51:02.601Z,47.02
2019-04-28T15:53:48.389Z,47.15
2019-04-28T15:56:47.404Z,48.83
2019-04-28T15:59:33.207Z,46.70
2019-04-28T16:02:19.415Z,48.87
2019-04-28T16:05:05.505Z,53.67
2019-04-28T16:07:50.916Z,56.33
2019-04-28T16:10:36.663Z,59.47
2019-04-28T16:13:23.016Z,61.01
2019-04-28T16:16:09.596Z,65.46
2019-04-28T16:18:55.844Z,69.14
2019-04-28T16:21:43.544Z,73.25
2019-04-28T16:24:30.380Z,68.96
2019-04-28T16:27:16.220Z,70.98
2019-04-28T16:30:04.403Z,73.19
2019-04-28T16:32:50.272Z,72.12
2019-04-28T16:35:37.624Z,72.46
2019-04-28T16:38:23.592Z,74.08
2019-04-28T16:41:14.024Z,72.03
2019-04-28T16:44:04.175Z,69.49
2019-04-28T16:46:49.862Z,68.59
2019-04-28T16:49:37.906Z,67.45
2019-04-28T16:52:24.148Z,66.83
2019-04-28T16:55:14.417Z,65.75
2019-04-28T16:58:13.588Z,66.02
2019-04-28T17:01:19.262Z,66.28
2019-04-28T17:04:05.286Z,65.44
2019-04-28T17:06:51.004Z,63.79
2019-04-28T17:09:36.833Z,63.92
2019-04-28T17:12:22.305Z,62.33
2019-04-28T17:15:08.176Z,62.35
2019-04-28T17:17:53.762Z,61.62
2019-04-28T17:20:39.257Z,61.50
2019-04-28T17:23:25.448Z,60.84
2019-04-28T17:26:11.649Z,60.19
2019-04-28T17:28:57.642Z,60.67
2019-04-28T17:31:43.941Z,60.40
2019-04-28T17:34:31.264Z,61.41
2019-04-28T17:37:16.891Z,59.45
2019-04-28T17:40:03.925Z,60.65
2019-04-28T17:42:50.281Z,61.56
2019-04-28T17:45:36.465Z,62.15
2019-04-28T17:48:28.395Z,62.71
2019-04-28T17:51:14.349Z,63.08
2019-04-28T17:54:00.169Z,61.77
2019-04-28T17:56:46.228Z,62.56
2019-04-28T17:59:35.515Z,63.52
2019-04-28T18:02:40.049Z,65.16
2019-04-28T18:05:31.249Z,66.88
2019-04-28T18:08:21.097Z,69.07
2019-04-28T18:11:05.205Z,69.46
2019-04-28T18:13:50.799Z,69.18
2019-04-28T18:16:56.681Z,68.45
2019-04-28T18:19:44.645Z,71.51
2019-04-28T18:22:31.561Z,69.71
2019-04-28T18:25:17.617Z,71.38
2019-04-28T18:28:04.031Z,71.77
2019-04-28T18:31:07.793Z,72.86
2019-04-28T18:34:09.997Z,72.53
2019-04-28T18:37:21.772Z,73.00
2019-04-28T18:40:16.086Z,74.32
2019-04-28T18:43:11.405Z,73.63
2019-04-28T18:45:57.276Z,73.89
2019-04-28T18:48:43.974Z,74.55
2019-04-28T18:51:44.319Z,73.95
2019-04-28T18:54:42.546Z,73.89
2019-04-28T18:57:31.760Z,73.86
2019-04-28T19:00:20.633Z,74.71
2019-04-28T19:03:06.739Z,75.51
2019-04-28T19:05:53.461Z,75.47
2019-04-28T19:08:49.252Z,76.34
2019-04-28T19:11:45.287Z,76.37
2019-04-28T19:14:38.061Z,76.65
2019-04-28T19:17:42.070Z,77.62
2019-04-28T19:20:27.910Z,77.19
2019-04-28T19:23:13.798Z,77.74
2019-04-28T19:26:00.176Z,78.28
2019-04-28T19:28:45.680Z,78.08
2019-04-28T19:31:31.719Z,78.65
2019-04-28T19:34:18.747Z,77.61
2019-04-28T19:37:04.954Z,78.11
2019-04-28T19:39:51.202Z,79.25
2019-04-28T19:42:38.993Z,78.93
2019-04-28T19:45:24.730Z,78.54
2019-04-28T19:48:11.206Z,77.36
2019-04-28T19:51:01.659Z,77.24
2019-04-28T19:53:47.510Z,76.78
2019-04-28T19:56:39.210Z,77.67
2019-04-28T19:59:35.656Z,79.04
2019-04-28T20:02:22.031Z,80.14
2019-04-28T20:05:08.471Z,79.23
2019-04-28T20:07:54.696Z,78.44
2019-04-28T20:10:40.613Z,78.24
2019-04-28T20:13:31.185Z,78.56
2019-04-28T20:16:16.694Z,80.29
2019-04-28T20:19:02.759Z,81.86
2019-04-28T20:21:48.907Z,82.06
2019-04-28T20:24:46.558Z,82.37
2019-04-28T20:27:21.956Z,82.52
2019-04-28T20:30:08.082Z,82.81
2019-04-28T20:33:06.524Z,83.12
2019-04-28T20:35:46.906Z,83.39
2019-04-28T20:38:33.457Z,83.26
2019-04-28T20:41:22.294Z,80.76
2019-04-28T20:44:08.061Z,79.92
2019-04-28T20:46:57.127Z,83.60
2019-04-28T20:49:43.140Z,84.26
2019-04-28T20:52:29.428Z,83.88
2019-04-28T20:55:15.796Z,83.79
2019-04-28T20:58:01.620Z,82.68
2019-04-28T21:00:47.844Z,83.29
2019-04-28T21:03:33.810Z,82.66
2019-04-28T21:06:19.799Z,83.78
2019-04-28T21:09:09.497Z,85.18
2019-04-28T21:11:54.697Z,85.48
2019-04-28T21:14:40.243Z,85.38
2019-04-28T21:17:26.331Z,85.24
2019-04-28T21:20:12.735Z,85.02
2019-04-28T21:22:59.035Z,83.51
2019-04-28T21:25:44.509Z,82.14
2019-04-28T21:28:30.499Z,84.66
2019-04-28T21:31:16.409Z,85.09
2019-04-28T21:34:02.157Z,85.10
2019-04-28T21:36:48.204Z,85.35
2019-04-28T21:39:34.451Z,85.28
2019-04-28T21:42:22.810Z,84.94
2019-04-28T21:45:23.245Z,84.78
2019-04-28T21:48:09.541Z,84.24
2019-04-28T21:50:55.473Z,84.19
2019-04-28T21:53:43.432Z,82.58
2019-04-28T21:56:29.304Z,81.29
2019-04-28T21:59:14.895Z,81.05
2019-04-28T22:02:01.238Z,81.46
2019-04-28T22:04:47.088Z,81.21
2019-04-28T22:07:33.337Z,81.16
2019-04-28T22:10:19.741Z,83.89
2019-04-28T22:13:07.679Z,84.32
2019-04-28T22:15:53.567Z,84.67
2019-04-28T22:18:40.495Z,83.12
2019-04-28T22:21:26.023Z,82.26
2019-04-28T22:24:24.547Z,82.18
2019-04-28T22:27:12.525Z,81.81
2019-04-28T22:29:58.065Z,82.17
2019-04-28T22:32:43.957Z,82.38
2019-04-28T22:35:29.874Z,82.44
2019-04-28T22:38:15.427Z,82.24
2019-04-28T22:41:01.217Z,82.26
2019-04-28T22:43:46.692Z,82.29
2019-04-28T22:46:32.593Z,82.31
2019-04-28T22:49:18.469Z,82.68
2019-04-28T22:52:04.462Z,83.08
2019-04-28T22:55:11.133Z,83.11
2019-04-28T22:58:04.704Z,82.99
2019-04-28T23:01:10.565Z,83.18
2019-04-28T23:04:25.652Z,82.93
2019-04-28T23:07:11.653Z,83.16
2019-04-28T23:09:57.937Z,83.88
2019-04-28T23:12:43.849Z,86.43
2019-04-28T23:15:29.485Z,85.08
2019-04-28T23:18:15.600Z,84.30
2019-04-28T23:21:06.254Z,83.86
2019-04-28T23:23:52.198Z,83.60
2019-04-28T23:26:38.152Z,83.50
2019-04-28T23:29:23.869Z,83.48
2019-04-28T23:32:09.538Z,83.69
2019-04-28T23:34:55.404Z,83.75
2019-04-28T23:37:41.182Z,83.62
2019-04-28T23:40:27.141Z,83.64
2019-04-28T23:43:17.713Z,83.64
2019-04-28T23:46:03.414Z,83.90
2019-04-28T23:48:49.242Z,83.91
2019-04-28T23:51:41.734Z,84.47
2019-04-28T23:54:27.658Z,85.07
2019-04-28T23:57:13.410Z,84.89
2019-04-28T23:59:59.694Z,87.31
